sensor_id;sensor_type;location;lat;lon;timestamp;pressure;altitude;pressure_sealevel;temperature;humidity
20955;BME280;10636;19.390;-99.256;2023-10-08T00:01:03;78029.41;;;25.98;42.94
20955;BME280;10636;19.390;-99.256;2023-10-08T00:03:32;78026.13;;;26.00;42.84
20955;BME280;10636;19.390;-99.256;2023-10-08T00:06:04;78034.25;;;26.02;42.95
20955;BME280;10636;19.390;-99.256;2023-10-08T00:08:39;78033.47;;;25.99;42.97
20955;BME280;10636;19.390;-99.256;2023-10-08T00:11:09;78042.16;;;25.98;43.18
20955;BME280;10636;19.390;-99.256;2023-10-08T00:13:38;78052.22;;;25.97;42.73
20955;BME280;10636;19.390;-99.256;2023-10-08T00:16:08;78051.59;;;25.99;43.01
20955;BME280;10636;19.390;-99.256;2023-10-08T00:18:38;78055.59;;;25.98;42.95
20955;BME280;10636;19.390;-99.256;2023-10-08T00:21:09;78065.59;;;25.95;42.89
20955;BME280;10636;19.390;-99.256;2023-10-08T00:23:52;78060.75;;;25.92;42.62
20955;BME280;10636;19.390;-99.256;2023-10-08T00:26:25;78074.88;;;25.92;43.02
20955;BME280;10636;19.390;-99.256;2023-10-08T00:28:56;78080.94;;;25.93;43.16
20955;BME280;10636;19.390;-99.256;2023-10-08T00:31:26;78068.81;;;25.92;42.91
20955;BME280;10636;19.390;-99.256;2023-10-08T00:34:04;78080.78;;;25.89;42.96
20955;BME280;10636;19.390;-99.256;2023-10-08T00:36:35;78081.50;;;25.89;42.82
20955;BME280;10636;19.390;-99.256;2023-10-08T00:39:04;78086.88;;;25.89;42.83
20955;BME280;10636;19.390;-99.256;2023-10-08T00:41:42;78094.22;;;25.89;42.66
20955;BME280;10636;19.390;-99.256;2023-10-08T00:44:11;78102.22;;;25.87;43.01
20955;BME280;10636;19.390;-99.256;2023-10-08T00:46:43;78100.16;;;25.85;42.93
20955;BME280;10636;19.390;-99.256;2023-10-08T00:49:16;78104.22;;;25.86;42.92
20955;BME280;10636;19.390;-99.256;2023-10-08T00:52:08;78108.97;;;25.88;42.69
20955;BME280;10636;19.390;-99.256;2023-10-08T00:54:53;78118.31;;;25.87;42.67
20955;BME280;10636;19.390;-99.256;2023-10-08T00:57:37;78123.63;;;25.85;42.83
20955;BME280;10636;19.390;-99.256;2023-10-08T01:00:10;78141.03;;;25.84;42.59
20955;BME280;10636;19.390;-99.256;2023-10-08T01:02:48;78135.66;;;25.84;42.82
20955;BME280;10636;19.390;-99.256;2023-10-08T01:05:24;78157.16;;;25.84;42.84
20955;BME280;10636;19.390;-99.256;2023-10-08T01:08:09;78151.09;;;25.83;42.73
20955;BME280;10636;19.390;-99.256;2023-10-08T01:10:41;78163.25;;;25.84;42.60
20955;BME280;10636;19.390;-99.256;2023-10-08T01:13:15;78161.25;;;25.85;42.72
20955;BME280;10636;19.390;-99.256;2023-10-08T01:15:47;78163.94;;;25.85;42.46
20955;BME280;10636;19.390;-99.256;2023-10-08T01:18:18;78165.22;;;25.84;42.61
20955;BME280;10636;19.390;-99.256;2023-10-08T01:20:55;78167.91;;;25.84;42.67
20955;BME280;10636;19.390;-99.256;2023-10-08T01:23:37;78175.22;;;25.81;42.79
20955;BME280;10636;19.390;-99.256;2023-10-08T01:26:05;78169.16;;;25.80;42.38
20955;BME280;10636;19.390;-99.256;2023-10-08T01:28:39;78175.84;;;25.79;42.40
20955;BME280;10636;19.390;-99.256;2023-10-08T01:31:11;78185.19;;;25.78;42.86
20955;BME280;10636;19.390;-99.256;2023-10-08T01:33:41;78182.50;;;25.78;42.52
20955;BME280;10636;19.390;-99.256;2023-10-08T01:36:16;78188.56;;;25.79;42.40
20955;BME280;10636;19.390;-99.256;2023-10-08T01:38:47;78192.53;;;25.78;42.35
20955;BME280;10636;19.390;-99.256;2023-10-08T01:41:16;78191.84;;;25.77;42.34
20955;BME280;10636;19.390;-99.256;2023-10-08T01:43:47;78191.84;;;25.77;42.36
20955;BME280;10636;19.390;-99.256;2023-10-08T01:46:16;78193.16;;;25.76;42.37
20955;BME280;10636;19.390;-99.256;2023-10-08T01:48:48;78195.84;;;25.76;42.40
20955;BME280;10636;19.390;-99.256;2023-10-08T01:51:22;78190.56;;;25.78;42.55
20955;BME280;10636;19.390;-99.256;2023-10-08T01:54:04;78193.16;;;25.76;42.40
20955;BME280;10636;19.390;-99.256;2023-10-08T01:56:38;78201.22;;;25.76;42.25
20955;BME280;10636;19.390;-99.256;2023-10-08T01:59:09;78203.22;;;25.76;42.05
20955;BME280;10636;19.390;-99.256;2023-10-08T02:01:40;78199.16;;;25.75;42.15
20955;BME280;10636;19.390;-99.256;2023-10-08T02:04:09;78194.38;;;25.73;42.07
20955;BME280;10636;19.390;-99.256;2023-10-08T02:06:39;78197.75;;;25.74;42.41
20955;BME280;10636;19.390;-99.256;2023-10-08T02:09:10;78192.97;;;25.72;42.24
20955;BME280;10636;19.390;-99.256;2023-10-08T02:11:44;78187.59;;;25.72;42.50
20955;BME280;10636;19.390;-99.256;2023-10-08T02:14:13;78186.84;;;25.70;41.90
20955;BME280;10636;19.390;-99.256;2023-10-08T02:16:43;78182.16;;;25.70;42.19
20955;BME280;10636;19.390;-99.256;2023-10-08T02:19:13;78191.53;;;25.69;42.14
20955;BME280;10636;19.390;-99.256;2023-10-08T02:21:45;78183.38;;;25.67;42.35
20955;BME280;10636;19.390;-99.256;2023-10-08T02:24:15;78186.16;;;25.69;42.30
20955;BME280;10636;19.390;-99.256;2023-10-08T02:26:44;78187.53;;;25.70;42.51
20955;BME280;10636;19.390;-99.256;2023-10-08T02:29:13;78187.38;;;25.66;42.13
20955;BME280;10636;19.390;-99.256;2023-10-08T02:31:42;78192.75;;;25.66;42.02
20955;BME280;10636;19.390;-99.256;2023-10-08T02:34:11;78202.13;;;25.65;42.27
20955;BME280;10636;19.390;-99.256;2023-10-08T02:36:40;78198.13;;;25.66;42.40
20955;BME280;10636;19.390;-99.256;2023-10-08T02:39:09;78193.97;;;25.63;42.43
20955;BME280;10636;19.390;-99.256;2023-10-08T02:41:50;78196.75;;;25.65;42.39
20955;BME280;10636;19.390;-99.256;2023-10-08T02:44:20;78202.81;;;25.66;42.54
20955;BME280;10636;19.390;-99.256;2023-10-08T02:46:50;78202.03;;;25.63;42.47
20955;BME280;10636;19.390;-99.256;2023-10-08T02:49:21;78203.41;;;25.64;42.34
20955;BME280;10636;19.390;-99.256;2023-10-08T02:51:52;78202.63;;;25.62;42.52
20955;BME280;10636;19.390;-99.256;2023-10-08T02:54:22;78209.94;;;25.59;42.55
20955;BME280;10636;19.390;-99.256;2023-10-08T02:57:00;78212.63;;;25.59;42.50
20955;BME280;10636;19.390;-99.256;2023-10-08T02:59:31;78225.94;;;25.57;42.55
20955;BME280;10636;19.390;-99.256;2023-10-08T03:02:07;78232.63;;;25.56;42.37
20955;BME280;10636;19.390;-99.256;2023-10-08T03:04:41;78235.31;;;25.56;42.36
20955;BME280;10636;19.390;-99.256;2023-10-08T03:07:11;78244.59;;;25.53;42.59
20955;BME280;10636;19.390;-99.256;2023-10-08T03:09:48;78253.94;;;25.52;42.32
20955;BME280;10636;19.390;-99.256;2023-10-08T03:12:19;78254.66;;;25.52;42.33
20955;BME280;10636;19.390;-99.256;2023-10-08T03:14:51;78261.94;;;25.50;42.49
20955;BME280;10636;19.390;-99.256;2023-10-08T03:17:39;78268.69;;;25.51;42.28
20955;BME280;10636;19.390;-99.256;2023-10-08T03:20:15;78266.63;;;25.49;42.34
20955;BME280;10636;19.390;-99.256;2023-10-08T03:22:56;78268.53;;;25.47;42.42
20955;BME280;10636;19.390;-99.256;2023-10-08T03:25:26;78279.34;;;25.49;42.36
20955;BME280;10636;19.390;-99.256;2023-10-08T03:27:57;78282.03;;;25.49;42.07
20955;BME280;10636;19.390;-99.256;2023-10-08T03:30:25;78276.66;;;25.49;42.08
20955;BME280;10636;19.390;-99.256;2023-10-08T03:32:55;78270.59;;;25.48;42.22
20955;BME280;10636;19.390;-99.256;2023-10-08T03:35:23;78279.34;;;25.49;41.96
20955;BME280;10636;19.390;-99.256;2023-10-08T03:37:59;78279.41;;;25.51;42.21
20955;BME280;10636;19.390;-99.256;2023-10-08T03:40:47;78275.44;;;25.52;41.98
20955;BME280;10636;19.390;-99.256;2023-10-08T03:43:19;78284.78;;;25.51;42.35
20955;BME280;10636;19.390;-99.256;2023-10-08T03:46:00;78282.09;;;25.51;42.16
20955;BME280;10636;19.390;-99.256;2023-10-08T03:48:32;78275.44;;;25.52;42.32
20955;BME280;10636;19.390;-99.256;2023-10-08T03:51:03;78279.53;;;25.53;42.29
20955;BME280;10636;19.390;-99.256;2023-10-08T03:53:38;78274.16;;;25.53;42.07
20955;BME280;10636;19.390;-99.256;2023-10-08T03:56:25;78282.28;;;25.55;42.10
20955;BME280;10636;19.390;-99.256;2023-10-08T03:58:58;78273.53;;;25.54;42.02
20955;BME280;10636;19.390;-99.256;2023-10-08T04:01:30;78283.59;;;25.54;42.29
20955;BME280;10636;19.390;-99.256;2023-10-08T04:03:59;78279.59;;;25.55;42.58
20955;BME280;10636;19.390;-99.256;2023-10-08T04:06:34;78279.59;;;25.55;42.27
20955;BME280;10636;19.390;-99.256;2023-10-08T04:09:06;78279.59;;;25.55;42.42
20955;BME280;10636;19.390;-99.256;2023-10-08T04:11:51;78284.91;;;25.53;42.26
20955;BME280;10636;19.390;-99.256;2023-10-08T04:14:25;78290.16;;;25.51;42.50
20955;BME280;10636;19.390;-99.256;2023-10-08T04:16:55;78284.78;;;25.51;42.51
20955;BME280;10636;19.390;-99.256;2023-10-08T04:19:25;78288.09;;;25.49;42.44
20955;BME280;10636;19.390;-99.256;2023-10-08T04:21:55;78275.28;;;25.48;42.37
20955;BME280;10636;19.390;-99.256;2023-10-08T04:24:24;78279.97;;;25.47;42.31
20955;BME280;10636;19.390;-99.256;2023-10-08T04:27:01;78283.94;;;25.46;42.18
20955;BME280;10636;19.390;-99.256;2023-10-08T04:29:33;78290.03;;;25.47;42.36
20955;BME280;10636;19.390;-99.256;2023-10-08T04:32:04;78291.28;;;25.46;42.31
20955;BME280;10636;19.390;-99.256;2023-10-08T04:34:38;78299.34;;;25.46;42.29
20955;BME280;10636;19.390;-99.256;2023-10-08T04:37:12;78288.53;;;25.44;42.64
20955;BME280;10636;19.390;-99.256;2023-10-08T04:39:46;78292.69;;;25.47;42.47
20955;BME280;10636;19.390;-99.256;2023-10-08T04:42:21;78291.91;;;25.44;42.61
20955;BME280;10636;19.390;-99.256;2023-10-08T04:44:55;78302.66;;;25.44;42.36
20955;BME280;10636;19.390;-99.256;2023-10-08T04:47:25;78301.97;;;25.44;42.56
20955;BME280;10636;19.390;-99.256;2023-10-08T04:49:59;78308.03;;;25.44;42.35
20955;BME280;10636;19.390;-99.256;2023-10-08T04:52:30;78305.25;;;25.42;42.28
20955;BME280;10636;19.390;-99.256;2023-10-08T04:55:00;78298.50;;;25.41;42.25
20955;BME280;10636;19.390;-99.256;2023-10-08T04:57:39;78304.47;;;25.40;42.31
20955;BME280;10636;19.390;-99.256;2023-10-08T05:00:12;78303.09;;;25.39;42.24
20955;BME280;10636;19.390;-99.256;2023-10-08T05:02:41;78297.72;;;25.39;42.65
20955;BME280;10636;19.390;-99.256;2023-10-08T05:05:17;78294.97;;;25.37;42.47
20955;BME280;10636;19.390;-99.256;2023-10-08T05:08:05;78300.41;;;25.39;42.58
20955;BME280;10636;19.390;-99.256;2023-10-08T05:10:54;78285.59;;;25.38;42.65
20955;BME280;10636;19.390;-99.256;2023-10-08T05:13:41;78290.34;;;25.39;42.39
20955;BME280;10636;19.390;-99.256;2023-10-08T05:16:24;78288.97;;;25.38;42.63
20955;BME280;10636;19.390;-99.256;2023-10-08T05:19:10;78276.19;;;25.37;42.59
20955;BME280;10636;19.390;-99.256;2023-10-08T05:22:15;78268.03;;;25.35;42.47
20955;BME280;10636;19.390;-99.256;2023-10-08T05:25:08;78264.72;;;25.36;42.83
20955;BME280;10636;19.390;-99.256;2023-10-08T05:27:53;78262.66;;;25.35;42.64
20955;BME280;10636;19.390;-99.256;2023-10-08T05:30:25;78264.03;;;25.36;42.84
20955;BME280;10636;19.390;-99.256;2023-10-08T05:32:57;78257.28;;;25.35;42.40
20955;BME280;10636;19.390;-99.256;2023-10-08T05:35:43;78253.22;;;25.34;42.74
20955;BME280;10636;19.390;-99.256;2023-10-08T05:38:22;78234.44;;;25.34;42.44
20955;BME280;10636;19.390;-99.256;2023-10-08T05:40:50;78249.16;;;25.33;42.93
20955;BME280;10636;19.390;-99.256;2023-10-08T05:43:43;78258.50;;;25.32;42.36
20955;BME280;10636;19.390;-99.256;2023-10-08T05:46:40;78256.53;;;25.32;42.70
20955;BME280;10636;19.390;-99.256;2023-10-08T05:49:33;78262.47;;;25.30;42.62
20955;BME280;10636;19.390;-99.256;2023-10-08T05:52:23;78263.19;;;25.31;42.89
20955;BME280;10636;19.390;-99.256;2023-10-08T05:55:08;78254.44;;;25.30;42.96
20955;BME280;10636;19.390;-99.256;2023-10-08T05:57:53;78249.66;;;25.29;42.50
20955;BME280;10636;19.390;-99.256;2023-10-08T06:00:39;78242.91;;;25.28;42.38
20955;BME280;10636;19.390;-99.256;2023-10-08T06:03:31;78247.59;;;25.27;42.65
20955;BME280;10636;19.390;-99.256;2023-10-08T06:06:02;78236.88;;;25.27;42.66
20955;BME280;10636;19.390;-99.256;2023-10-08T06:08:49;78234.78;;;25.26;42.81
20955;BME280;10636;19.390;-99.256;2023-10-08T06:11:19;78240.16;;;25.26;42.25
20955;BME280;10636;19.390;-99.256;2023-10-08T06:14:11;78234.09;;;25.25;42.54
20955;BME280;10636;19.390;-99.256;2023-10-08T06:16:43;78234.78;;;25.26;42.80
20955;BME280;10636;19.390;-99.256;2023-10-08T06:19:14;78232.69;;;25.24;42.62
20955;BME280;10636;19.390;-99.256;2023-10-08T06:21:43;78230.72;;;25.25;42.66
20955;BME280;10636;19.390;-99.256;2023-10-08T06:24:12;78229.94;;;25.22;42.45
20955;BME280;10636;19.390;-99.256;2023-10-08T06:26:43;78242.06;;;25.23;42.60
20955;BME280;10636;19.390;-99.256;2023-10-08T06:29:15;78242.69;;;25.22;42.64
20955;BME280;10636;19.390;-99.256;2023-10-08T06:31:54;78240.59;;;25.20;42.45
20955;BME280;10636;19.390;-99.256;2023-10-08T06:34:23;78244.66;;;25.21;42.44
20955;BME280;10636;19.390;-99.256;2023-10-08T06:36:58;78235.31;;;25.22;42.84
20955;BME280;10636;19.390;-99.256;2023-10-08T06:39:28;78233.94;;;25.21;42.69
20955;BME280;10636;19.390;-99.256;2023-10-08T06:42:13;78238.63;;;25.21;42.41
20955;BME280;10636;19.390;-99.256;2023-10-08T06:44:42;78224.47;;;25.20;42.48
20955;BME280;10636;19.390;-99.256;2023-10-08T06:47:12;78234.53;;;25.20;42.55
20955;BME280;10636;19.390;-99.256;2023-10-08T06:49:42;78233.25;;;25.21;42.38
20955;BME280;10636;19.390;-99.256;2023-10-08T06:52:13;78225.88;;;25.21;42.73
20955;BME280;10636;19.390;-99.256;2023-10-08T06:54:42;78222.50;;;25.21;42.78
20955;BME280;10636;19.390;-99.256;2023-10-08T06:57:10;78224.47;;;25.20;43.03
20955;BME280;10636;19.390;-99.256;2023-10-08T06:59:40;78223.09;;;25.19;42.47
20955;BME280;10636;19.390;-99.256;2023-10-08T07:02:09;78212.28;;;25.17;42.75
20955;BME280;10636;19.390;-99.256;2023-10-08T07:04:41;78214.97;;;25.17;42.61
20955;BME280;10636;19.390;-99.256;2023-10-08T07:07:14;78214.97;;;25.17;42.67
20955;BME280;10636;19.390;-99.256;2023-10-08T07:09:45;78223.03;;;25.17;42.73
20955;BME280;10636;19.390;-99.256;2023-10-08T07:12:14;78218.34;;;25.18;42.56
20955;BME280;10636;19.390;-99.256;2023-10-08T07:14:43;78208.31;;;25.18;42.56
20955;BME280;10636;19.390;-99.256;2023-10-08T07:17:12;78206.94;;;25.17;42.83
20955;BME280;10636;19.390;-99.256;2023-10-08T07:19:46;78204.25;;;25.17;42.71
20955;BME280;10636;19.390;-99.256;2023-10-08T07:22:18;78194.13;;;25.16;42.41
20955;BME280;10636;19.390;-99.256;2023-10-08T07:24:48;78203.56;;;25.17;42.50
20955;BME280;10636;19.390;-99.256;2023-10-08T07:27:18;78210.22;;;25.16;42.57
20955;BME280;10636;19.390;-99.256;2023-10-08T07:29:50;78204.75;;;25.14;42.84
20955;BME280;10636;19.390;-99.256;2023-10-08T07:32:21;78200.06;;;25.14;42.66
20955;BME280;10636;19.390;-99.256;2023-10-08T07:34:51;78201.38;;;25.13;42.41
20955;BME280;10636;19.390;-99.256;2023-10-08T07:37:28;78189.28;;;25.12;42.74
20955;BME280;10636;19.390;-99.256;2023-10-08T07:39:59;78190.56;;;25.11;42.55
20955;BME280;10636;19.390;-99.256;2023-10-08T07:42:34;78187.91;;;25.11;42.39
20955;BME280;10636;19.390;-99.256;2023-10-08T07:45:03;78184.41;;;25.09;42.51
20955;BME280;10636;19.390;-99.256;2023-10-08T07:47:34;78186.50;;;25.10;42.55
20955;BME280;10636;19.390;-99.256;2023-10-08T07:50:02;78185.81;;;25.10;42.52
20955;BME280;10636;19.390;-99.256;2023-10-08T07:52:39;78180.25;;;25.06;42.55
20955;BME280;10636;19.390;-99.256;2023-10-08T07:55:10;78188.41;;;25.08;42.96
20955;BME280;10636;19.390;-99.256;2023-10-08T07:57:43;78185.03;;;25.07;42.67
20955;BME280;10636;19.390;-99.256;2023-10-08T08:00:13;78193.78;;;25.08;42.86
20955;BME280;10636;19.390;-99.256;2023-10-08T08:02:52;78191.72;;;25.06;42.78
20955;BME280;10636;19.390;-99.256;2023-10-08T08:05:21;78191.72;;;25.06;42.43
20955;BME280;10636;19.390;-99.256;2023-10-08T08:07:53;78183.66;;;25.06;42.56
20955;BME280;10636;19.390;-99.256;2023-10-08T08:10:22;78184.34;;;25.07;43.08
20955;BME280;10636;19.390;-99.256;2023-10-08T08:12:52;78180.25;;;25.06;42.89
20955;BME280;10636;19.390;-99.256;2023-10-08T08:15:23;78179.56;;;25.05;42.77
20955;BME280;10636;19.390;-99.256;2023-10-08T08:17:53;78179.56;;;25.05;42.58
20955;BME280;10636;19.390;-99.256;2023-10-08T08:20:22;78172.81;;;25.04;43.17
20955;BME280;10636;19.390;-99.256;2023-10-08T08:23:02;78170.03;;;25.02;42.63
20955;BME280;10636;19.390;-99.256;2023-10-08T08:25:36;78174.72;;;25.01;42.93
20955;BME280;10636;19.390;-99.256;2023-10-08T08:28:12;78168.66;;;25.01;42.85
20955;BME280;10636;19.390;-99.256;2023-10-08T08:30:44;78169.97;;;25.00;42.94
20955;BME280;10636;19.390;-99.256;2023-10-08T08:33:14;78168.66;;;25.01;42.47
20955;BME280;10636;19.390;-99.256;2023-10-08T08:35:57;78164.59;;;25.00;42.69
20955;BME280;10636;19.390;-99.256;2023-10-08T08:38:29;78151.19;;;25.00;42.59
20955;BME280;10636;19.390;-99.256;2023-10-08T08:41:05;78154.47;;;24.98;42.79
20955;BME280;10636;19.390;-99.256;2023-10-08T08:43:34;78152.47;;;24.99;42.66
20955;BME280;10636;19.390;-99.256;2023-10-08T08:46:04;78152.41;;;24.97;42.90
20955;BME280;10636;19.390;-99.256;2023-10-08T08:48:34;78148.41;;;24.98;42.85
20955;BME280;10636;19.390;-99.256;2023-10-08T08:51:05;78142.34;;;24.97;43.08
20955;BME280;10636;19.390;-99.256;2023-10-08T08:53:35;78143.03;;;24.98;43.06
20955;BME280;10636;19.390;-99.256;2023-10-08T08:56:06;78144.41;;;24.99;43.09
20955;BME280;10636;19.390;-99.256;2023-10-08T08:58:36;78137.69;;;24.98;42.73
20955;BME280;10636;19.390;-99.256;2023-10-08T09:01:11;78143.03;;;24.98;43.19
20955;BME280;10636;19.390;-99.256;2023-10-08T09:03:41;78140.97;;;24.96;42.71
20955;BME280;10636;19.390;-99.256;2023-10-08T09:06:10;78136.22;;;24.95;42.63
20955;BME280;10636;19.390;-99.256;2023-10-08T09:08:40;78138.91;;;24.95;42.72
20955;BME280;10636;19.390;-99.256;2023-10-08T09:11:15;78148.97;;;24.94;42.66
20955;BME280;10636;19.390;-99.256;2023-10-08T09:13:44;78148.25;;;24.94;42.59
20955;BME280;10636;19.390;-99.256;2023-10-08T09:16:13;78146.88;;;24.93;42.68
20955;BME280;10636;19.390;-99.256;2023-10-08T09:18:43;78144.09;;;24.91;43.08
20955;BME280;10636;19.390;-99.256;2023-10-08T09:21:13;78146.88;;;24.93;42.82
20955;BME280;10636;19.390;-99.256;2023-10-08T09:23:44;78142.81;;;24.92;42.82
20955;BME280;10636;19.390;-99.256;2023-10-08T09:26:14;78142.19;;;24.93;43.08
20955;BME280;10636;19.390;-99.256;2023-10-08T09:28:46;78142.81;;;24.92;42.71
20955;BME280;10636;19.390;-99.256;2023-10-08T09:31:15;78138.75;;;24.91;43.08
20955;BME280;10636;19.390;-99.256;2023-10-08T09:33:54;78132.00;;;24.90;42.88
20955;BME280;10636;19.390;-99.256;2023-10-08T09:36:23;78126.63;;;24.90;42.82
20955;BME280;10636;19.390;-99.256;2023-10-08T09:39:01;78136.69;;;24.89;42.84
20955;BME280;10636;19.390;-99.256;2023-10-08T09:41:31;78136.69;;;24.89;42.85
20955;BME280;10636;19.390;-99.256;2023-10-08T09:44:01;78134.59;;;24.88;42.90
20955;BME280;10636;19.390;-99.256;2023-10-08T09:46:31;78130.59;;;24.89;42.78
20955;BME280;10636;19.390;-99.256;2023-10-08T09:49:03;78120.84;;;24.80;42.71
20955;BME280;10636;19.390;-99.256;2023-10-08T09:51:37;78135.28;;;24.88;42.93
20955;BME280;10636;19.390;-99.256;2023-10-08T09:54:15;78137.88;;;24.86;42.71
20955;BME280;10636;19.390;-99.256;2023-10-08T09:56:49;78141.94;;;24.87;42.75
20955;BME280;10636;19.390;-99.256;2023-10-08T09:59:19;78134.59;;;24.88;43.16
20955;BME280;10636;19.390;-99.256;2023-10-08T10:01:51;78129.16;;;24.86;42.74
20955;BME280;10636;19.390;-99.256;2023-10-08T10:04:26;78137.19;;;24.86;42.80
20955;BME280;10636;19.390;-99.256;2023-10-08T10:06:58;78141.19;;;24.85;42.90
20955;BME280;10636;19.390;-99.256;2023-10-08T10:09:28;78139.81;;;24.84;42.88
20955;BME280;10636;19.390;-99.256;2023-10-08T10:11:56;78141.88;;;24.85;43.02
20955;BME280;10636;19.390;-99.256;2023-10-08T10:14:25;78147.22;;;24.85;42.90
20955;BME280;10636;19.390;-99.256;2023-10-08T10:17:14;78139.09;;;24.83;43.21
20955;BME280;10636;19.390;-99.256;2023-10-08T10:19:50;78143.75;;;24.83;42.92
20955;BME280;10636;19.390;-99.256;2023-10-08T10:22:29;78141.09;;;24.83;42.98
20955;BME280;10636;19.390;-99.256;2023-10-08T10:25:00;78132.34;;;24.82;43.17
20955;BME280;10636;19.390;-99.256;2023-10-08T10:27:30;78142.38;;;24.82;43.08
20955;BME280;10636;19.390;-99.256;2023-10-08T10:30:03;78141.00;;;24.81;43.33
20955;BME280;10636;19.390;-99.256;2023-10-08T10:32:35;78146.38;;;24.81;42.86
20955;BME280;10636;19.390;-99.256;2023-10-08T10:35:04;78139.47;;;24.75;42.67
20955;BME280;10636;19.390;-99.256;2023-10-08T10:37:38;78134.16;;;24.77;42.89
20955;BME280;10636;19.390;-99.256;2023-10-08T10:40:11;78148.88;;;24.76;43.21
20955;BME280;10636;19.390;-99.256;2023-10-08T10:42:39;78154.25;;;24.76;43.03
20955;BME280;10636;19.390;-99.256;2023-10-08T10:45:14;78151.56;;;24.76;42.57
20955;BME280;10636;19.390;-99.256;2023-10-08T10:48:02;78156.25;;;24.76;43.31
20955;BME280;10636;19.390;-99.256;2023-10-08T10:50:40;78158.94;;;24.76;43.00
20955;BME280;10636;19.390;-99.256;2023-10-08T10:53:17;78162.91;;;24.75;43.16
20955;BME280;10636;19.390;-99.256;2023-10-08T10:55:47;78158.22;;;24.75;43.17
20955;BME280;10636;19.390;-99.256;2023-10-08T10:58:26;78171.56;;;24.73;43.30
20955;BME280;10636;19.390;-99.256;2023-10-08T11:01:05;78179.63;;;24.73;42.99
20955;BME280;10636;19.390;-99.256;2023-10-08T11:03:34;78166.09;;;24.71;43.00
20955;BME280;10636;19.390;-99.256;2023-10-08T11:06:03;78166.09;;;24.71;43.31
20955;BME280;10636;19.390;-99.256;2023-10-08T11:08:41;78166.09;;;24.71;42.82
20955;BME280;10636;19.390;-99.256;2023-10-08T11:11:14;78167.50;;;24.72;43.13
20955;BME280;10636;19.390;-99.256;2023-10-08T11:13:44;78175.53;;;24.72;43.43
20955;BME280;10636;19.390;-99.256;2023-10-08T11:16:18;78182.19;;;24.71;42.80
20955;BME280;10636;19.390;-99.256;2023-10-08T11:18:48;78176.84;;;24.71;43.20
20955;BME280;10636;19.390;-99.256;2023-10-08T11:21:17;78176.84;;;24.71;42.94
20955;BME280;10636;19.390;-99.256;2023-10-08T11:23:51;78169.06;;;24.62;43.00
20955;BME280;10636;19.390;-99.256;2023-10-08T11:26:28;78176.75;;;24.69;42.87
20955;BME280;10636;19.390;-99.256;2023-10-08T11:29:06;78188.78;;;24.68;42.74
20955;BME280;10636;19.390;-99.256;2023-10-08T11:31:42;78186.00;;;24.66;42.79
20955;BME280;10636;19.390;-99.256;2023-10-08T11:34:11;78195.34;;;24.65;43.28
20955;BME280;10636;19.390;-99.256;2023-10-08T11:36:41;78188.69;;;24.66;43.20
20955;BME280;10636;19.390;-99.256;2023-10-08T11:39:19;78190.00;;;24.65;43.11
20955;BME280;10636;19.390;-99.256;2023-10-08T11:41:59;78190.59;;;24.64;43.09
20955;BME280;10636;19.390;-99.256;2023-10-08T11:44:33;78185.25;;;24.64;43.08
20955;BME280;10636;19.390;-99.256;2023-10-08T11:47:03;78187.94;;;24.64;43.20
20955;BME280;10636;19.390;-99.256;2023-10-08T11:49:38;78186.56;;;24.63;43.02
20955;BME280;10636;19.390;-99.256;2023-10-08T11:52:13;78195.28;;;24.63;42.74
20955;BME280;10636;19.390;-99.256;2023-10-08T11:54:43;78192.59;;;24.63;42.97
20955;BME280;10636;19.390;-99.256;2023-10-08T11:57:16;78181.78;;;24.61;43.00
20955;BME280;10636;19.390;-99.256;2023-10-08T11:59:48;78183.06;;;24.60;43.50
20955;BME280;10636;19.390;-99.256;2023-10-08T12:02:19;78185.75;;;24.60;43.62
20955;BME280;10636;19.390;-99.256;2023-10-08T12:04:47;78191.81;;;24.61;43.21
20955;BME280;10636;19.390;-99.256;2023-10-08T12:07:16;78185.06;;;24.60;43.35
20955;BME280;10636;19.390;-99.256;2023-10-08T12:09:46;78186.38;;;24.59;43.15
20955;BME280;10636;19.390;-99.256;2023-10-08T12:12:16;78185.69;;;24.58;43.25
20955;BME280;10636;19.390;-99.256;2023-10-08T12:14:49;78187.69;;;24.58;43.07
20955;BME280;10636;19.390;-99.256;2023-10-08T12:17:21;78192.31;;;24.57;43.30
20955;BME280;10636;19.390;-99.256;2023-10-08T12:19:58;78193.63;;;24.56;43.74
20955;BME280;10636;19.390;-99.256;2023-10-08T12:22:38;78197.59;;;24.55;43.52
20955;BME280;10636;19.390;-99.256;2023-10-08T12:25:08;78201.66;;;24.56;43.73
20955;BME280;10636;19.390;-99.256;2023-10-08T12:27:38;78199.59;;;24.55;43.61
20955;BME280;10636;19.390;-99.256;2023-10-08T12:30:08;78203.66;;;24.56;43.28
20955;BME280;10636;19.390;-99.256;2023-10-08T12:32:37;78202.34;;;24.57;43.36
20955;BME280;10636;19.390;-99.256;2023-10-08T12:35:08;78199.69;;;24.57;43.28
20955;BME280;10636;19.390;-99.256;2023-10-08T12:37:39;78197.59;;;24.55;43.62
20955;BME280;10636;19.390;-99.256;2023-10-08T12:40:10;78200.38;;;24.57;43.94
20955;BME280;10636;19.390;-99.256;2023-10-08T12:42:50;78205.66;;;24.55;43.75
20955;BME280;10636;19.390;-99.256;2023-10-08T12:45:19;78201.59;;;24.54;43.94
20955;BME280;10636;19.390;-99.256;2023-10-08T12:47:49;78206.97;;;24.54;43.99
20955;BME280;10636;19.390;-99.256;2023-10-08T12:50:19;78212.31;;;24.54;43.59
20955;BME280;10636;19.390;-99.256;2023-10-08T12:52:55;78212.31;;;24.54;43.90
20955;BME280;10636;19.390;-99.256;2023-10-08T12:55:24;78211.63;;;24.54;43.74
20955;BME280;10636;19.390;-99.256;2023-10-08T12:57:54;78210.94;;;24.53;43.32
20955;BME280;10636;19.390;-99.256;2023-10-08T13:00:32;78214.94;;;24.52;43.75
20955;BME280;10636;19.390;-99.256;2023-10-08T13:03:00;78214.94;;;24.52;43.96
20955;BME280;10636;19.390;-99.256;2023-10-08T13:05:32;78208.84;;;24.51;44.01
20955;BME280;10636;19.390;-99.256;2023-10-08T13:08:00;78208.16;;;24.51;43.64
20955;BME280;10636;19.390;-99.256;2023-10-08T13:10:36;78212.25;;;24.52;43.49
20955;BME280;10636;19.390;-99.256;2023-10-08T13:13:09;78212.81;;;24.50;44.29